MET7782 - Hamburg to Kangerlussuaq

Airbus A321-232
665MT - Sharklet Equipped
4 hrs 40 mins
1881 nm
Ferry - M

Departure

Departing from
Hamburg (XFW)
Departure gate
Delivery Centre
Scheduled Departure
GMT 0700
Local 0800
METAR
TAF
  • No charts available

Arrival

Arriving at
Kangerlussuaq (SFJ)
Arrival gate
Ramp
Scheduled Arrival
GMT 1140
Local 0840
METAR BGSF 170150Z AUTO 06008KT 9999NDV -SHSN FEW044/// BKN050/// M15/M20 Q1003
TAF TAF BGSF 161653Z 1618/1702 06008KT 9999 FEW060 BKN140 TEMPO 1618/1702 BKN060

Route Map

Planning Resources

LBE P992 VES M609 SVA L621 ZOL P603 FLS N623 VALDI/M027F100
LBE UP992 VES UP613 VALDI G3 METIL KEF DCT GIMLI DCT DA DCT SF
LBE UP992 ZOL UG11 MY G3 KEF HEKLA PEVAR GANGI BGSF
EDHI LBE6W LBE P992 SOVES P992 SOVES UP992 ISVIG ING G3 KEF 6532N 6644N BGSF
EDHI HAM DA MASIK PEVAR GANGI BGSF
Route:
OFP Layout:
Units:
Detailed Navlog:
ETOPS Planning:
Plan Stepclimbs:
Runway Analysis:
Include NOTAMS:
FIR NOTAMS:
Flight Maps:

Popularity

Hub Current Bids PiReps this month Total PiReps
KMCI 0 1 1
KLAX 0 0 0
KBOS 0 0 0